Ever Diamond — 3FQS8 — position and weather

sailwx.info

Track history (hours):
 
Tides and Currents Weather Stations Pressure Air Temp Water Temp Dewpoint Dewpoint Depression Visibility Wind Speed Wind Dir Waves Ship Positions

Ever Diamond

Last reported at 2014-Aug-01 07:30 UTC. Time now 2014-Aug-01 09:48 UTC.
Position N 34°39' W 074°13'.

Type: Ship (hazmat cat D). MMSI: 354893000.

Date/timePositionNaut miles runAvg speedWind from/ knotsBaromVisibWave heightAir tempDewpointWater temp
2014-Aug-01 07:30N 34°39' W 074°13'1415.3
2014-Aug-01 06:34N 34°54' W 074°12'1914.6
2014-Aug-01 05:15N 35°13' W 074°11'1013.8
2014-Aug-01 04:33N 35°22' W 074°10'9113.1
2014-Jul-31 21:33N 36°54' W 074°06'4914.9
2014-Jul-31 18:18N 37°43' W 074°05'4114.5
2014-Jul-31 15:30N 38°23' W 074°01'1414.3
2014-Jul-31 14:31N 38°37' W 074°01'1814.2
2014-Jul-31 13:17N 38°55' W 074°00'1214.0
2014-Jul-31 12:24N 39°07' W 073°59'1714.1
2014-Jul-31 11:13N 39°23' W 073°56'914.2
2014-Jul-31 10:33N 39°33' W 073°54'1414.1
2014-Jul-31 09:33N 39°47' W 073°52'1414.2
2014-Jul-31 08:33N 40°01' W 073°51'1414.1
2014-Jul-31 07:33N 40°15' W 073°49'1212.1
2014-Jul-31 06:33N 40°27' W 073°51'1313.5
2014-Jul-31 05:34N 40°37' W 074°03'5 5.4
2014-Jul-31 04:34N 40°40' W 074°08'1 0.9
2014-Jul-31 03:32N 40°41' W 074°09'0 0.1
2014-Jul-31 02:32N 40°41' W 074°09'0 0.0
2014-Jul-31 01:32N 40°41' W 074°09'0 0.0
2014-Jul-31 00:32N 40°41' W 074°09'0 0.0
2014-Jul-30 23:32N 40°41' W 074°09'0 0.0
2014-Jul-30 22:32N 40°41' W 074°09'0 0.0
2014-Jul-30 21:29N 40°41' W 074°09'0 0.0
2014-Jul-30 20:32N 40°41' W 074°09'0 0.0
2014-Jul-30 19:32N 40°41' W 074°09'0 0.0
2014-Jul-30 18:32N 40°41' W 074°09'0 0.0
2014-Jul-30 17:32N 40°41' W 074°09'0 0.0
2014-Jul-30 16:32N 40°41' W 074°09'0 0.0
2014-Jul-30 15:23N 40°41' W 074°09'0 0.0
2014-Jul-30 14:33N 40°41' W 074°09'3 3.3
2014-Jul-30 13:33N 40°39' W 074°05'1111.5
2014-Jul-30 12:33N 40°30' W 073°56'9 9.4
2014-Jul-30 11:33N 40°24' W 073°46'1313.3
2014-Jul-30 10:33N 40°11' W 073°44'1717.4
2014-Jul-30 09:33N 39°54' W 073°41'1817.6
2014-Jul-30 08:33N 39°36' W 073°40'1917.6
2014-Jul-30 07:28N 39°17' W 073°40'1717.2
2014-Jul-30 06:29N 38°60' W 073°41'15917.7
2014-Jul-29 21:30N 36°49' W 075°35'1616.5
2014-Jul-29 20:33N 36°53' W 075°54'1615.6
2014-Jul-29 19:33N 36°60' W 076°11'10 9.4
2014-Jul-29 18:32N 36°53' W 076°20'1 0.5
2014-Jul-29 16:31N 36°52' W 076°21'0 0.0
2014-Jul-29 11:31N 36°52' W 076°21'0 0.0
2014-Jul-29 08:10N 36°52' W 076°21'0 0.0
2014-Jul-29 07:28N 36°52' W 076°21'0 0.0
2014-Jul-29 06:31N 36°52' W 076°21'1 1.1
2014-Jul-29 05:32N 36°53' W 076°20'9 8.8
2014-Jul-29 04:33N 37°00' W 076°14'1110.7
2014-Jul-29 03:33N 36°59' W 076°01'1515.1
2014-Jul-29 02:33N 37°13' W 076°09'1916.6
2014-Jul-29 01:24N 37°31' W 076°02'7218.8
2014-Jul-28 21:33N 38°41' W 076°25'1817.9
2014-Jul-28 20:33N 38°59' W 076°23'1312.9
2014-Jul-28 19:33N 39°11' W 076°28'5 5.3
2014-Jul-28 18:33N 39°15' W 076°33'0 0.0
2014-Jul-28 17:33N 39°15' W 076°33'0 0.0
2014-Jul-28 16:33N 39°15' W 076°33'0 0.0
2014-Jul-28 15:33N 39°15' W 076°33'0 0.0
2014-Jul-28 14:33N 39°15' W 076°33'0 0.0
2014-Jul-28 13:33N 39°15' W 076°33'0 0.0
2014-Jul-28 12:33N 39°15' W 076°33'0 0.0
2014-Jul-28 11:33N 39°15' W 076°33'0 0.0
2014-Jul-28 10:33N 39°15' W 076°33'0 0.0
2014-Jul-28 09:33N 39°15' W 076°33'0 0.0
2014-Jul-28 08:33N 39°15' W 076°33'0 0.0
2014-Jul-28 07:34N 39°15' W 076°33'0 0.0
2014-Jul-28 06:33N 39°15' W 076°33'0 0.0
2014-Jul-28 05:33N 39°15' W 076°33'0 0.0
2014-Jul-28 04:33N 39°15' W 076°33'0 0.0
2014-Jul-28 03:33N 39°15' W 076°33'0 0.0
2014-Jul-28 02:33N 39°15' W 076°33'0 0.0
2014-Jul-28 01:33N 39°15' W 076°33'0 0.0
2014-Jul-28 00:34N 39°15' W 076°33'0 0.0
2014-Jul-27 23:33N 39°15' W 076°33'0 0.0
2014-Jul-27 22:33N 39°15' W 076°33'0 0.0
2014-Jul-27 21:34N 39°15' W 076°33'1 0.9
2014-Jul-27 20:33N 39°14' W 076°33'9 8.6
2014-Jul-27 19:33N 39°09' W 076°24'1515.3
2014-Jul-27 18:34N 38°53' W 076°24'9218.4
2014-Jul-27 13:33N 37°23' W 076°05'1616.5
2014-Jul-27 12:33N 37°06' W 076°07'1514.8
2014-Jul-27 11:32N 36°55' W 075°55'3716.9
2014-Jul-27 09:23N 36°25' W 075°28'5518.4
2014-Jul-27 06:22N 35°33' W 075°05'1417.7
2014-Jul-27 05:33N 35°19' W 074°60'4418.5
2014-Jul-27 03:10N 34°40' W 075°25'1420.8
2014-Jul-27 02:29N 34°30' W 075°37'2120.7
2014-Jul-27 01:28N 34°16' W 075°56'  
Track history (hours):
 
Tides and Currents Weather Stations Pressure Air Temp Water Temp Dewpoint Dewpoint Depression Visibility Wind Speed Wind Dir Waves Ship Positions

Ever Diamond

Last reported at 2014-Aug-01 07:30 UTC. Time now 2014-Aug-01 09:48 UTC.
Position N 34°39' W 074°13'.

Type: Ship (hazmat cat D). MMSI: 354893000.

Date/timePositionNaut miles runAvg speedWind from/ knotsBaromVisibWave heightAir tempDewpointWater temp
2014-Aug-01 07:30N 34°39' W 074°13'1415.3
2014-Aug-01 06:34N 34°54' W 074°12'1914.6
2014-Aug-01 05:15N 35°13' W 074°11'1013.8
2014-Aug-01 04:33N 35°22' W 074°10'9113.1
2014-Jul-31 21:33N 36°54' W 074°06'4914.9
2014-Jul-31 18:18N 37°43' W 074°05'4114.5
2014-Jul-31 15:30N 38°23' W 074°01'1414.3
2014-Jul-31 14:31N 38°37' W 074°01'1814.2
2014-Jul-31 13:17N 38°55' W 074°00'1214.0
2014-Jul-31 12:24N 39°07' W 073°59'1714.1
2014-Jul-31 11:13N 39°23' W 073°56'914.2
2014-Jul-31 10:33N 39°33' W 073°54'1414.1
2014-Jul-31 09:33N 39°47' W 073°52'1414.2
2014-Jul-31 08:33N 40°01' W 073°51'1414.1
2014-Jul-31 07:33N 40°15' W 073°49'1212.1
2014-Jul-31 06:33N 40°27' W 073°51'1313.5
2014-Jul-31 05:34N 40°37' W 074°03'5 5.4
2014-Jul-31 04:34N 40°40' W 074°08'1 0.9
2014-Jul-31 03:32N 40°41' W 074°09'0 0.1
2014-Jul-31 02:32N 40°41' W 074°09'0 0.0
2014-Jul-31 01:32N 40°41' W 074°09'0 0.0
2014-Jul-31 00:32N 40°41' W 074°09'0 0.0
2014-Jul-30 23:32N 40°41' W 074°09'0 0.0
2014-Jul-30 22:32N 40°41' W 074°09'0 0.0
2014-Jul-30 21:29N 40°41' W 074°09'0 0.0
2014-Jul-30 20:32N 40°41' W 074°09'0 0.0
2014-Jul-30 19:32N 40°41' W 074°09'0 0.0
2014-Jul-30 18:32N 40°41' W 074°09'0 0.0
2014-Jul-30 17:32N 40°41' W 074°09'0 0.0
2014-Jul-30 16:32N 40°41' W 074°09'0 0.0
2014-Jul-30 15:23N 40°41' W 074°09'0 0.0
2014-Jul-30 14:33N 40°41' W 074°09'3 3.3
2014-Jul-30 13:33N 40°39' W 074°05'1111.5
2014-Jul-30 12:33N 40°30' W 073°56'9 9.4
2014-Jul-30 11:33N 40°24' W 073°46'1313.3
2014-Jul-30 10:33N 40°11' W 073°44'1717.4
2014-Jul-30 09:33N 39°54' W 073°41'1817.6
2014-Jul-30 08:33N 39°36' W 073°40'1917.6
2014-Jul-30 07:28N 39°17' W 073°40'1717.2
2014-Jul-30 06:29N 38°60' W 073°41'15917.7
2014-Jul-29 21:30N 36°49' W 075°35'1616.5
2014-Jul-29 20:33N 36°53' W 075°54'1615.6
2014-Jul-29 19:33N 36°60' W 076°11'10 9.4
2014-Jul-29 18:32N 36°53' W 076°20'1 0.5
2014-Jul-29 16:31N 36°52' W 076°21'0 0.0
2014-Jul-29 11:31N 36°52' W 076°21'0 0.0
2014-Jul-29 08:10N 36°52' W 076°21'0 0.0
2014-Jul-29 07:28N 36°52' W 076°21'0 0.0
2014-Jul-29 06:31N 36°52' W 076°21'1 1.1
2014-Jul-29 05:32N 36°53' W 076°20'9 8.8
2014-Jul-29 04:33N 37°00' W 076°14'1110.7
2014-Jul-29 03:33N 36°59' W 076°01'1515.1
2014-Jul-29 02:33N 37°13' W 076°09'1916.6
2014-Jul-29 01:24N 37°31' W 076°02'7218.8
2014-Jul-28 21:33N 38°41' W 076°25'1817.9
2014-Jul-28 20:33N 38°59' W 076°23'1312.9
2014-Jul-28 19:33N 39°11' W 076°28'5 5.3
2014-Jul-28 18:33N 39°15' W 076°33'0 0.0
2014-Jul-28 17:33N 39°15' W 076°33'0 0.0
2014-Jul-28 16:33N 39°15' W 076°33'0 0.0
2014-Jul-28 15:33N 39°15' W 076°33'0 0.0
2014-Jul-28 14:33N 39°15' W 076°33'0 0.0
2014-Jul-28 13:33N 39°15' W 076°33'0 0.0
2014-Jul-28 12:33N 39°15' W 076°33'0 0.0
2014-Jul-28 11:33N 39°15' W 076°33'0 0.0
2014-Jul-28 10:33N 39°15' W 076°33'0 0.0
2014-Jul-28 09:33N 39°15' W 076°33'0 0.0
2014-Jul-28 08:33N 39°15' W 076°33'0 0.0
2014-Jul-28 07:34N 39°15' W 076°33'0 0.0
2014-Jul-28 06:33N 39°15' W 076°33'0 0.0
2014-Jul-28 05:33N 39°15' W 076°33'0 0.0
2014-Jul-28 04:33N 39°15' W 076°33'0 0.0
2014-Jul-28 03:33N 39°15' W 076°33'0 0.0
2014-Jul-28 02:33N 39°15' W 076°33'0 0.0
2014-Jul-28 01:33N 39°15' W 076°33'0 0.0
2014-Jul-28 00:34N 39°15' W 076°33'0 0.0
2014-Jul-27 23:33N 39°15' W 076°33'0 0.0
2014-Jul-27 22:33N 39°15' W 076°33'0 0.0
2014-Jul-27 21:34N 39°15' W 076°33'1 0.9
2014-Jul-27 20:33N 39°14' W 076°33'9 8.6
2014-Jul-27 19:33N 39°09' W 076°24'1515.3
2014-Jul-27 18:34N 38°53' W 076°24'9218.4
2014-Jul-27 13:33N 37°23' W 076°05'1616.5
2014-Jul-27 12:33N 37°06' W 076°07'1514.8
2014-Jul-27 11:32N 36°55' W 075°55'3716.9
2014-Jul-27 09:23N 36°25' W 075°28'5518.4
2014-Jul-27 06:22N 35°33' W 075°05'1417.7
2014-Jul-27 05:33N 35°19' W 074°60'4418.5
2014-Jul-27 03:10N 34°40' W 075°25'1420.8
2014-Jul-27 02:29N 34°30' W 075°37'2120.7
2014-Jul-27 01:28N 34°16' W 075°56'  

Dump ship's entire track history